sensor_id;sensor_type;location;lat;lon;timestamp;temperature;humidity
20045;DHT22;10183;47.808;9.476;2023-06-14T00:01:53;12.00;97.80
20045;DHT22;10183;47.808;9.476;2023-06-14T00:04:19;11.80;98.30
20045;DHT22;10183;47.808;9.476;2023-06-14T00:06:46;11.70;99.00
20045;DHT22;10183;47.808;9.476;2023-06-14T00:09:12;11.60;99.90
20045;DHT22;10183;47.808;9.476;2023-06-14T00:11:41;11.50;99.90
20045;DHT22;10183;47.808;9.476;2023-06-14T00:14:07;11.50;99.90
20045;DHT22;10183;47.808;9.476;2023-06-14T00:16:34;11.50;99.90
20045;DHT22;10183;47.808;9.476;2023-06-14T00:19:01;11.60;99.90
20045;DHT22;10183;47.808;9.476;2023-06-14T00:21:31;11.50;99.90
20045;DHT22;10183;47.808;9.476;2023-06-14T00:23:58;11.60;99.90
20045;DHT22;10183;47.808;9.476;2023-06-14T00:26:24;11.60;99.90
20045;DHT22;10183;47.808;9.476;2023-06-14T00:28:53;11.50;99.90
20045;DHT22;10183;47.808;9.476;2023-06-14T00:31:19;11.40;99.90
20045;DHT22;10183;47.808;9.476;2023-06-14T00:33:45;11.40;99.90
20045;DHT22;10183;47.808;9.476;2023-06-14T00:36:12;11.40;99.90
20045;DHT22;10183;47.808;9.476;2023-06-14T00:38:38;11.40;99.90
20045;DHT22;10183;47.808;9.476;2023-06-14T00:41:04;11.40;99.90
20045;DHT22;10183;47.808;9.476;2023-06-14T00:43:30;11.40;99.90
20045;DHT22;10183;47.808;9.476;2023-06-14T00:45:58;11.30;99.90
20045;DHT22;10183;47.808;9.476;2023-06-14T00:48:24;11.20;99.90
20045;DHT22;10183;47.808;9.476;2023-06-14T00:50:51;10.90;99.90
20045;DHT22;10183;47.808;9.476;2023-06-14T00:53:19;10.70;99.90
20045;DHT22;10183;47.808;9.476;2023-06-14T00:55:47;10.70;99.90
20045;DHT22;10183;47.808;9.476;2023-06-14T00:58:13;10.70;99.90
20045;DHT22;10183;47.808;9.476;2023-06-14T01:00:40;10.80;99.90
20045;DHT22;10183;47.808;9.476;2023-06-14T01:03:06;10.90;99.90
20045;DHT22;10183;47.808;9.476;2023-06-14T01:05:33;10.90;99.90
20045;DHT22;10183;47.808;9.476;2023-06-14T01:10:59;10.70;99.90
20045;DHT22;10183;47.808;9.476;2023-06-14T01:13:33;10.30;99.90
20045;DHT22;10183;47.808;9.476;2023-06-14T01:16:00;10.20;99.90
20045;DHT22;10183;47.808;9.476;2023-06-14T01:18:28;10.10;99.90
20045;DHT22;10183;47.808;9.476;2023-06-14T01:20:56;10.00;99.90
20045;DHT22;10183;47.808;9.476;2023-06-14T01:23:23;9.40;99.90
20045;DHT22;10183;47.808;9.476;2023-06-14T01:25:50;9.00;99.90
20045;DHT22;10183;47.808;9.476;2023-06-14T01:28:20;8.90;99.90
20045;DHT22;10183;47.808;9.476;2023-06-14T01:30:52;8.90;99.90
20045;DHT22;10183;47.808;9.476;2023-06-14T01:33:21;8.90;99.90
20045;DHT22;10183;47.808;9.476;2023-06-14T01:35:49;8.90;99.90
20045;DHT22;10183;47.808;9.476;2023-06-14T01:38:17;8.90;99.90
20045;DHT22;10183;47.808;9.476;2023-06-14T01:40:45;8.90;99.90
20045;DHT22;10183;47.808;9.476;2023-06-14T01:43:16;8.90;99.90
20045;DHT22;10183;47.808;9.476;2023-06-14T01:45:45;9.00;99.90
20045;DHT22;10183;47.808;9.476;2023-06-14T01:48:13;9.20;99.90
20045;DHT22;10183;47.808;9.476;2023-06-14T01:50:39;9.30;99.90
20045;DHT22;10183;47.808;9.476;2023-06-14T01:53:09;9.30;99.90
20045;DHT22;10183;47.808;9.476;2023-06-14T01:55:36;9.30;99.90
20045;DHT22;10183;47.808;9.476;2023-06-14T01:58:04;9.20;99.90
20045;DHT22;10183;47.808;9.476;2023-06-14T02:00:30;9.30;99.90
20045;DHT22;10183;47.808;9.476;2023-06-14T02:02:57;9.40;99.90
20045;DHT22;10183;47.808;9.476;2023-06-14T02:05:23;9.50;99.90
20045;DHT22;10183;47.808;9.476;2023-06-14T02:07:50;9.50;99.90
20045;DHT22;10183;47.808;9.476;2023-06-14T02:10:16;9.50;99.90
20045;DHT22;10183;47.808;9.476;2023-06-14T02:12:44;9.70;99.90
20045;DHT22;10183;47.808;9.476;2023-06-14T02:15:10;9.70;99.90
20045;DHT22;10183;47.808;9.476;2023-06-14T02:17:43;9.70;99.90
20045;DHT22;10183;47.808;9.476;2023-06-14T02:20:10;9.70;99.90
20045;DHT22;10183;47.808;9.476;2023-06-14T02:22:36;9.70;99.90
20045;DHT22;10183;47.808;9.476;2023-06-14T02:25:02;9.80;99.90
20045;DHT22;10183;47.808;9.476;2023-06-14T02:27:29;9.70;99.90
20045;DHT22;10183;47.808;9.476;2023-06-14T02:29:55;9.70;99.90
20045;DHT22;10183;47.808;9.476;2023-06-14T02:32:21;9.70;99.90
20045;DHT22;10183;47.808;9.476;2023-06-14T02:34:47;9.70;99.90
20045;DHT22;10183;47.808;9.476;2023-06-14T02:37:19;9.50;99.90
20045;DHT22;10183;47.808;9.476;2023-06-14T02:39:45;9.40;99.90
20045;DHT22;10183;47.808;9.476;2023-06-14T02:42:11;9.30;99.90
20045;DHT22;10183;47.808;9.476;2023-06-14T02:44:38;9.20;99.90
20045;DHT22;10183;47.808;9.476;2023-06-14T02:47:04;9.20;99.90
20045;DHT22;10183;47.808;9.476;2023-06-14T02:49:31;9.30;99.90
20045;DHT22;10183;47.808;9.476;2023-06-14T02:51:57;9.40;99.90
20045;DHT22;10183;47.808;9.476;2023-06-14T02:54:23;9.50;99.90
20045;DHT22;10183;47.808;9.476;2023-06-14T02:56:49;9.60;99.90
20045;DHT22;10183;47.808;9.476;2023-06-14T02:59:16;9.70;99.90
20045;DHT22;10183;47.808;9.476;2023-06-14T03:01:42;9.70;99.90
20045;DHT22;10183;47.808;9.476;2023-06-14T03:04:09;9.70;99.90
20045;DHT22;10183;47.808;9.476;2023-06-14T03:06:35;9.70;99.90
20045;DHT22;10183;47.808;9.476;2023-06-14T03:09:03;9.80;99.90
20045;DHT22;10183;47.808;9.476;2023-06-14T03:11:33;9.80;99.90
20045;DHT22;10183;47.808;9.476;2023-06-14T03:14:00;9.70;99.90
20045;DHT22;10183;47.808;9.476;2023-06-14T03:16:26;9.70;99.90
20045;DHT22;10183;47.808;9.476;2023-06-14T03:18:54;9.80;99.90
20045;DHT22;10183;47.808;9.476;2023-06-14T03:21:21;9.80;99.90
20045;DHT22;10183;47.808;9.476;2023-06-14T03:23:47;9.80;99.90
20045;DHT22;10183;47.808;9.476;2023-06-14T03:26:14;9.80;99.90
20045;DHT22;10183;47.808;9.476;2023-06-14T03:28:47;9.80;99.90
20045;DHT22;10183;47.808;9.476;2023-06-14T03:31:14;9.80;99.90
20045;DHT22;10183;47.808;9.476;2023-06-14T03:33:41;9.70;99.90
20045;DHT22;10183;47.808;9.476;2023-06-14T03:36:07;9.80;99.90
20045;DHT22;10183;47.808;9.476;2023-06-14T03:38:33;9.70;99.90
20045;DHT22;10183;47.808;9.476;2023-06-14T03:41:00;9.70;99.90
20045;DHT22;10183;47.808;9.476;2023-06-14T03:43:27;9.70;99.90
20045;DHT22;10183;47.808;9.476;2023-06-14T03:45:53;9.60;99.90
20045;DHT22;10183;47.808;9.476;2023-06-14T03:48:19;9.60;99.90
20045;DHT22;10183;47.808;9.476;2023-06-14T03:50:45;9.50;99.90
20045;DHT22;10183;47.808;9.476;2023-06-14T03:53:12;9.50;99.90
20045;DHT22;10183;47.808;9.476;2023-06-14T03:55:38;9.50;99.90
20045;DHT22;10183;47.808;9.476;2023-06-14T03:58:05;9.50;99.90
20045;DHT22;10183;47.808;9.476;2023-06-14T04:00:31;9.50;99.90
20045;DHT22;10183;47.808;9.476;2023-06-14T04:02:58;9.50;99.90
20045;DHT22;10183;47.808;9.476;2023-06-14T04:05:24;9.50;99.90
20045;DHT22;10183;47.808;9.476;2023-06-14T04:07:52;9.40;99.90
20045;DHT22;10183;47.808;9.476;2023-06-14T04:10:22;9.50;99.90
20045;DHT22;10183;47.808;9.476;2023-06-14T04:12:48;9.60;99.90
20045;DHT22;10183;47.808;9.476;2023-06-14T04:15:15;9.60;99.90
20045;DHT22;10183;47.808;9.476;2023-06-14T04:17:41;9.60;99.90
20045;DHT22;10183;47.808;9.476;2023-06-14T04:20:07;9.70;99.90
20045;DHT22;10183;47.808;9.476;2023-06-14T04:22:35;9.80;99.90
20045;DHT22;10183;47.808;9.476;2023-06-14T04:25:02;9.90;99.90
20045;DHT22;10183;47.808;9.476;2023-06-14T04:27:28;10.00;99.90
20045;DHT22;10183;47.808;9.476;2023-06-14T04:29:57;10.10;99.90
20045;DHT22;10183;47.808;9.476;2023-06-14T04:32:25;10.30;99.90
20045;DHT22;10183;47.808;9.476;2023-06-14T04:34:55;10.40;99.90
20045;DHT22;10183;47.808;9.476;2023-06-14T04:37:22;10.60;99.90
20045;DHT22;10183;47.808;9.476;2023-06-14T04:39:48;10.80;99.90
20045;DHT22;10183;47.808;9.476;2023-06-14T04:42:16;10.80;99.90
20045;DHT22;10183;47.808;9.476;2023-06-14T04:44:43;11.00;99.90
20045;DHT22;10183;47.808;9.476;2023-06-14T04:47:10;11.00;99.90
20045;DHT22;10183;47.808;9.476;2023-06-14T04:49:38;11.10;99.90
20045;DHT22;10183;47.808;9.476;2023-06-14T04:52:07;11.20;99.90
20045;DHT22;10183;47.808;9.476;2023-06-14T04:54:42;11.30;99.90
20045;DHT22;10183;47.808;9.476;2023-06-14T04:57:09;11.30;99.90
20045;DHT22;10183;47.808;9.476;2023-06-14T04:59:40;11.30;99.90
20045;DHT22;10183;47.808;9.476;2023-06-14T05:02:06;11.40;99.90
20045;DHT22;10183;47.808;9.476;2023-06-14T05:04:33;11.40;99.90
20045;DHT22;10183;47.808;9.476;2023-06-14T05:06:59;11.50;99.90
20045;DHT22;10183;47.808;9.476;2023-06-14T05:09:27;11.60;99.90
20045;DHT22;10183;47.808;9.476;2023-06-14T05:11:53;11.70;99.90
20045;DHT22;10183;47.808;9.476;2023-06-14T05:14:19;11.70;99.90
20045;DHT22;10183;47.808;9.476;2023-06-14T05:16:45;11.70;99.90
20045;DHT22;10183;47.808;9.476;2023-06-14T05:19:12;11.70;99.90
20045;DHT22;10183;47.808;9.476;2023-06-14T05:21:38;11.80;99.90
20045;DHT22;10183;47.808;9.476;2023-06-14T05:24:05;12.00;99.90
20045;DHT22;10183;47.808;9.476;2023-06-14T05:26:31;12.10;99.90
20045;DHT22;10183;47.808;9.476;2023-06-14T05:28:58;12.20;99.90
20045;DHT22;10183;47.808;9.476;2023-06-14T05:31:26;12.30;99.90
20045;DHT22;10183;47.808;9.476;2023-06-14T05:33:53;12.40;99.90
20045;DHT22;10183;47.808;9.476;2023-06-14T05:36:20;12.50;99.90
20045;DHT22;10183;47.808;9.476;2023-06-14T05:38:47;12.60;99.90
20045;DHT22;10183;47.808;9.476;2023-06-14T05:41:27;12.80;99.90
20045;DHT22;10183;47.808;9.476;2023-06-14T05:43:55;12.90;99.90
20045;DHT22;10183;47.808;9.476;2023-06-14T05:46:22;13.00;99.90
20045;DHT22;10183;47.808;9.476;2023-06-14T05:48:51;13.10;99.90
20045;DHT22;10183;47.808;9.476;2023-06-14T05:51:17;13.30;99.90
20045;DHT22;10183;47.808;9.476;2023-06-14T05:53:49;13.40;99.90
20045;DHT22;10183;47.808;9.476;2023-06-14T05:56:16;13.50;99.90
20045;DHT22;10183;47.808;9.476;2023-06-14T05:58:46;13.70;99.90
20045;DHT22;10183;47.808;9.476;2023-06-14T06:01:13;13.80;99.90
20045;DHT22;10183;47.808;9.476;2023-06-14T06:03:40;13.90;99.90
20045;DHT22;10183;47.808;9.476;2023-06-14T06:06:07;13.90;99.90
20045;DHT22;10183;47.808;9.476;2023-06-14T06:08:34;14.00;99.90
20045;DHT22;10183;47.808;9.476;2023-06-14T06:11:00;14.10;99.90
20045;DHT22;10183;47.808;9.476;2023-06-14T06:13:27;14.30;99.90
20045;DHT22;10183;47.808;9.476;2023-06-14T06:15:53;14.50;99.90
20045;DHT22;10183;47.808;9.476;2023-06-14T06:18:19;14.60;99.90
20045;DHT22;10183;47.808;9.476;2023-06-14T06:20:46;14.70;99.90
20045;DHT22;10183;47.808;9.476;2023-06-14T06:23:13;14.90;99.90
20045;DHT22;10183;47.808;9.476;2023-06-14T06:25:39;15.10;99.90
20045;DHT22;10183;47.808;9.476;2023-06-14T06:28:06;15.30;99.90
20045;DHT22;10183;47.808;9.476;2023-06-14T06:30:32;15.30;99.90
20045;DHT22;10183;47.808;9.476;2023-06-14T06:32:58;15.50;99.90
20045;DHT22;10183;47.808;9.476;2023-06-14T06:35:25;15.60;99.90
20045;DHT22;10183;47.808;9.476;2023-06-14T06:37:51;15.70;99.90
20045;DHT22;10183;47.808;9.476;2023-06-14T06:40:17;16.00;99.90
20045;DHT22;10183;47.808;9.476;2023-06-14T06:42:44;16.20;99.90
20045;DHT22;10183;47.808;9.476;2023-06-14T06:45:10;16.40;99.90
20045;DHT22;10183;47.808;9.476;2023-06-14T06:47:36;16.70;99.90
20045;DHT22;10183;47.808;9.476;2023-06-14T06:50:02;16.90;98.00
20045;DHT22;10183;47.808;9.476;2023-06-14T06:52:29;17.10;96.90
20045;DHT22;10183;47.808;9.476;2023-06-14T06:54:55;17.40;96.50
20045;DHT22;10183;47.808;9.476;2023-06-14T06:57:22;17.40;95.30
20045;DHT22;10183;47.808;9.476;2023-06-14T06:59:49;17.60;94.90
20045;DHT22;10183;47.808;9.476;2023-06-14T07:02:16;17.80;78.90
20045;DHT22;10183;47.808;9.476;2023-06-14T07:04:42;17.80;76.70
20045;DHT22;10183;47.808;9.476;2023-06-14T07:07:09;18.00;83.70
20045;DHT22;10183;47.808;9.476;2023-06-14T07:09:38;18.10;82.30
20045;DHT22;10183;47.808;9.476;2023-06-14T07:12:04;18.30;83.00
20045;DHT22;10183;47.808;9.476;2023-06-14T07:14:31;18.50;84.10
20045;DHT22;10183;47.808;9.476;2023-06-14T07:16:57;18.60;73.40
20045;DHT22;10183;47.808;9.476;2023-06-14T07:19:23;18.70;67.50
20045;DHT22;10183;47.808;9.476;2023-06-14T07:21:49;18.80;58.40
20045;DHT22;10183;47.808;9.476;2023-06-14T07:24:15;18.90;58.00
20045;DHT22;10183;47.808;9.476;2023-06-14T07:26:41;19.00;52.60
20045;DHT22;10183;47.808;9.476;2023-06-14T07:29:07;19.00;52.90
20045;DHT22;10183;47.808;9.476;2023-06-14T07:31:34;19.00;47.10
20045;DHT22;10183;47.808;9.476;2023-06-14T07:34:00;19.10;50.60
20045;DHT22;10183;47.808;9.476;2023-06-14T07:36:26;19.10;59.30
20045;DHT22;10183;47.808;9.476;2023-06-14T07:38:52;19.20;60.50
20045;DHT22;10183;47.808;9.476;2023-06-14T07:41:18;19.30;61.90
20045;DHT22;10183;47.808;9.476;2023-06-14T07:43:44;19.60;63.00
20045;DHT22;10183;47.808;9.476;2023-06-14T07:46:10;19.80;59.90
20045;DHT22;10183;47.808;9.476;2023-06-14T07:48:37;19.70;51.20
20045;DHT22;10183;47.808;9.476;2023-06-14T07:51:03;19.70;52.70
20045;DHT22;10183;47.808;9.476;2023-06-14T07:53:29;19.70;50.60
20045;DHT22;10183;47.808;9.476;2023-06-14T07:55:57;19.80;50.20
20045;DHT22;10183;47.808;9.476;2023-06-14T07:58:23;19.80;42.90
20045;DHT22;10183;47.808;9.476;2023-06-14T08:00:49;19.90;37.40
20045;DHT22;10183;47.808;9.476;2023-06-14T08:03:15;20.00;35.70
20045;DHT22;10183;47.808;9.476;2023-06-14T08:05:41;20.10;48.40
20045;DHT22;10183;47.808;9.476;2023-06-14T08:08:08;20.20;36.30
20045;DHT22;10183;47.808;9.476;2023-06-14T08:10:34;20.30;38.90
20045;DHT22;10183;47.808;9.476;2023-06-14T08:13:00;20.40;31.40
20045;DHT22;10183;47.808;9.476;2023-06-14T08:15:26;20.40;34.70
20045;DHT22;10183;47.808;9.476;2023-06-14T08:17:52;20.30;31.60
20045;DHT22;10183;47.808;9.476;2023-06-14T08:20:19;20.40;35.90
20045;DHT22;10183;47.808;9.476;2023-06-14T08:22:45;20.50;38.70
20045;DHT22;10183;47.808;9.476;2023-06-14T08:25:14;20.70;36.40
20045;DHT22;10183;47.808;9.476;2023-06-14T08:27:40;20.80;39.60
20045;DHT22;10183;47.808;9.476;2023-06-14T08:30:07;20.90;36.40
20045;DHT22;10183;47.808;9.476;2023-06-14T08:32:34;21.10;32.50
20045;DHT22;10183;47.808;9.476;2023-06-14T08:35:00;21.10;30.10
20045;DHT22;10183;47.808;9.476;2023-06-14T08:37:26;21.30;35.40
20045;DHT22;10183;47.808;9.476;2023-06-14T08:39:52;21.30;29.40
20045;DHT22;10183;47.808;9.476;2023-06-14T08:42:20;21.40;33.70
20045;DHT22;10183;47.808;9.476;2023-06-14T08:44:47;21.40;30.30
20045;DHT22;10183;47.808;9.476;2023-06-14T08:47:15;21.50;29.60
20045;DHT22;10183;47.808;9.476;2023-06-14T08:49:46;21.50;29.10
20045;DHT22;10183;47.808;9.476;2023-06-14T08:52:13;21.70;30.60
20045;DHT22;10183;47.808;9.476;2023-06-14T08:54:44;21.70;28.50
20045;DHT22;10183;47.808;9.476;2023-06-14T08:57:12;21.60;27.20
20045;DHT22;10183;47.808;9.476;2023-06-14T08:59:46;21.80;27.00
20045;DHT22;10183;47.808;9.476;2023-06-14T09:02:12;21.90;24.50
20045;DHT22;10183;47.808;9.476;2023-06-14T09:04:40;21.70;24.60
20045;DHT22;10183;47.808;9.476;2023-06-14T09:07:07;21.90;25.80
20045;DHT22;10183;47.808;9.476;2023-06-14T09:09:38;21.80;26.70
20045;DHT22;10183;47.808;9.476;2023-06-14T09:12:07;21.90;27.40
20045;DHT22;10183;47.808;9.476;2023-06-14T09:14:36;22.10;29.40
20045;DHT22;10183;47.808;9.476;2023-06-14T09:17:05;22.20;26.70
20045;DHT22;10183;47.808;9.476;2023-06-14T09:19:31;22.20;27.30
20045;DHT22;10183;47.808;9.476;2023-06-14T09:21:57;22.20;21.80
20045;DHT22;10183;47.808;9.476;2023-06-14T09:24:26;22.40;30.30
20045;DHT22;10183;47.808;9.476;2023-06-14T09:26:53;22.60;25.00
20045;DHT22;10183;47.808;9.476;2023-06-14T09:29:19;22.50;18.80
20045;DHT22;10183;47.808;9.476;2023-06-14T09:31:48;22.60;20.10
20045;DHT22;10183;47.808;9.476;2023-06-14T09:34:16;22.80;21.70
20045;DHT22;10183;47.808;9.476;2023-06-14T09:36:45;22.80;19.30
20045;DHT22;10183;47.808;9.476;2023-06-14T09:39:18;23.00;23.00
20045;DHT22;10183;47.808;9.476;2023-06-14T09:41:44;23.20;25.80
20045;DHT22;10183;47.808;9.476;2023-06-14T09:44:11;23.10;19.80
20045;DHT22;10183;47.808;9.476;2023-06-14T09:46:38;23.30;24.30
20045;DHT22;10183;47.808;9.476;2023-06-14T09:49:05;23.40;21.20
20045;DHT22;10183;47.808;9.476;2023-06-14T09:51:31;23.20;16.20
20045;DHT22;10183;47.808;9.476;2023-06-14T09:54:02;23.30;19.50
20045;DHT22;10183;47.808;9.476;2023-06-14T09:56:35;23.40;18.60
20045;DHT22;10183;47.808;9.476;2023-06-14T09:59:05;23.60;21.40
20045;DHT22;10183;47.808;9.476;2023-06-14T10:01:31;23.70;19.90
20045;DHT22;10183;47.808;9.476;2023-06-14T10:04:05;23.90;19.20
20045;DHT22;10183;47.808;9.476;2023-06-14T10:06:34;24.20;18.90
20045;DHT22;10183;47.808;9.476;2023-06-14T10:09:04;24.20;16.70
20045;DHT22;10183;47.808;9.476;2023-06-14T10:11:31;23.80;12.10
20045;DHT22;10183;47.808;9.476;2023-06-14T10:13:59;23.90;13.10
20045;DHT22;10183;47.808;9.476;2023-06-14T10:16:47;23.80;14.80
20045;DHT22;10183;47.808;9.476;2023-06-14T10:22:12;24.50;12.90
20045;DHT22;10183;47.808;9.476;2023-06-14T10:24:44;24.60;11.40
20045;DHT22;10183;47.808;9.476;2023-06-14T10:27:13;24.60;12.00
20045;DHT22;10183;47.808;9.476;2023-06-14T10:32:25;24.80;15.50
20045;DHT22;10183;47.808;9.476;2023-06-14T10:35:04;24.80;14.00
20045;DHT22;10183;47.808;9.476;2023-06-14T10:37:31;24.90;14.40
20045;DHT22;10183;47.808;9.476;2023-06-14T10:39:58;25.00;12.50
20045;DHT22;10183;47.808;9.476;2023-06-14T10:42:33;24.90;13.00
20045;DHT22;10183;47.808;9.476;2023-06-14T10:45:00;24.70;9.70
20045;DHT22;10183;47.808;9.476;2023-06-14T10:47:34;25.00;11.50
20045;DHT22;10183;47.808;9.476;2023-06-14T10:50:10;25.60;9.90
20045;DHT22;10183;47.808;9.476;2023-06-14T10:52:41;25.20;8.80
20045;DHT22;10183;47.808;9.476;2023-06-14T10:57:54;25.20;10.10
20045;DHT22;10183;47.808;9.476;2023-06-14T11:00:26;25.20;9.70
20045;DHT22;10183;47.808;9.476;2023-06-14T11:02:56;25.50;10.10
20045;DHT22;10183;47.808;9.476;2023-06-14T11:05:29;25.40;9.80
20045;DHT22;10183;47.808;9.476;2023-06-14T11:08:06;25.70;12.70
20045;DHT22;10183;47.808;9.476;2023-06-14T11:10:41;25.80;12.30
20045;DHT22;10183;47.808;9.476;2023-06-14T11:13:08;25.90;11.10
20045;DHT22;10183;47.808;9.476;2023-06-14T11:15:36;26.00;7.40
20045;DHT22;10183;47.808;9.476;2023-06-14T11:18:07;26.00;5.10
20045;DHT22;10183;47.808;9.476;2023-06-14T11:20:35;26.20;7.70
20045;DHT22;10183;47.808;9.476;2023-06-14T11:23:02;26.80;4.40
20045;DHT22;10183;47.808;9.476;2023-06-14T11:25:29;27.00;7.20
20045;DHT22;10183;47.808;9.476;2023-06-14T11:27:55;27.00;6.20
20045;DHT22;10183;47.808;9.476;2023-06-14T11:30:22;26.90;6.80
20045;DHT22;10183;47.808;9.476;2023-06-14T11:32:50;26.60;7.80
20045;DHT22;10183;47.808;9.476;2023-06-14T11:35:18;26.60;8.70
20045;DHT22;10183;47.808;9.476;2023-06-14T11:37:45;26.60;7.40
20045;DHT22;10183;47.808;9.476;2023-06-14T11:40:12;26.30;5.70
20045;DHT22;10183;47.808;9.476;2023-06-14T11:42:40;26.30;5.60
20045;DHT22;10183;47.808;9.476;2023-06-14T11:45:11;26.00;5.80
20045;DHT22;10183;47.808;9.476;2023-06-14T11:47:39;26.20;5.10
20045;DHT22;10183;47.808;9.476;2023-06-14T11:50:07;26.50;6.40
20045;DHT22;10183;47.808;9.476;2023-06-14T11:52:35;26.60;5.30
20045;DHT22;10183;47.808;9.476;2023-06-14T11:55:02;26.70;5.40
20045;DHT22;10183;47.808;9.476;2023-06-14T11:57:34;26.70;7.20
20045;DHT22;10183;47.808;9.476;2023-06-14T12:00:08;26.70;4.20
20045;DHT22;10183;47.808;9.476;2023-06-14T12:02:38;27.00;4.20
20045;DHT22;10183;47.808;9.476;2023-06-14T12:05:08;27.20;5.10
20045;DHT22;10183;47.808;9.476;2023-06-14T12:07:39;27.50;4.30
20045;DHT22;10183;47.808;9.476;2023-06-14T12:10:07;27.50;6.00
20045;DHT22;10183;47.808;9.476;2023-06-14T12:12:39;27.40;2.40
20045;DHT22;10183;47.808;9.476;2023-06-14T12:15:07;27.50;4.70
20045;DHT22;10183;47.808;9.476;2023-06-14T12:17:34;27.40;2.50
20045;DHT22;10183;47.808;9.476;2023-06-14T12:20:10;27.70;3.60
20045;DHT22;10183;47.808;9.476;2023-06-14T12:22:37;27.60;4.90
20045;DHT22;10183;47.808;9.476;2023-06-14T12:25:04;27.50;2.40
20045;DHT22;10183;47.808;9.476;2023-06-14T12:27:31;27.90;5.20
20045;DHT22;10183;47.808;9.476;2023-06-14T12:30:01;27.80;4.40
20045;DHT22;10183;47.808;9.476;2023-06-14T12:32:28;27.70;5.80
20045;DHT22;10183;47.808;9.476;2023-06-14T12:34:55;27.90;5.10
20045;DHT22;10183;47.808;9.476;2023-06-14T12:37:21;28.00;4.90
20045;DHT22;10183;47.808;9.476;2023-06-14T12:39:48;28.30;2.90
20045;DHT22;10183;47.808;9.476;2023-06-14T12:42:14;28.40;2.50
20045;DHT22;10183;47.808;9.476;2023-06-14T12:44:40;28.40;1.70
20045;DHT22;10183;47.808;9.476;2023-06-14T12:47:07;28.40;1.00
20045;DHT22;10183;47.808;9.476;2023-06-14T12:49:33;28.60;1.80
20045;DHT22;10183;47.808;9.476;2023-06-14T12:52:00;29.10;1.00
20045;DHT22;10183;47.808;9.476;2023-06-14T12:54:26;29.20;1.00
20045;DHT22;10183;47.808;9.476;2023-06-14T12:56:52;29.50;3.50
20045;DHT22;10183;47.808;9.476;2023-06-14T12:59:19;29.20;1.00
20045;DHT22;10183;47.808;9.476;2023-06-14T13:01:45;28.80;2.20
20045;DHT22;10183;47.808;9.476;2023-06-14T13:04:13;29.00;3.30
20045;DHT22;10183;47.808;9.476;2023-06-14T13:06:39;29.70;2.30
20045;DHT22;10183;47.808;9.476;2023-06-14T13:09:05;30.00;1.00
20045;DHT22;10183;47.808;9.476;2023-06-14T13:11:32;30.20;3.00
20045;DHT22;10183;47.808;9.476;2023-06-14T13:13:58;29.10;1.00
20045;DHT22;10183;47.808;9.476;2023-06-14T13:16:24;29.90;1.30
20045;DHT22;10183;47.808;9.476;2023-06-14T13:18:50;30.30;1.00
20045;DHT22;10183;47.808;9.476;2023-06-14T13:21:16;30.60;1.00
20045;DHT22;10183;47.808;9.476;2023-06-14T13:23:42;30.10;1.00
20045;DHT22;10183;47.808;9.476;2023-06-14T13:26:09;29.90;1.00
20045;DHT22;10183;47.808;9.476;2023-06-14T13:28:35;30.00;1.00
20045;DHT22;10183;47.808;9.476;2023-06-14T13:31:01;30.60;1.00
20045;DHT22;10183;47.808;9.476;2023-06-14T13:33:28;31.50;1.00
20045;DHT22;10183;47.808;9.476;2023-06-14T13:35:54;31.20;1.00
20045;DHT22;10183;47.808;9.476;2023-06-14T13:38:20;31.40;1.00
20045;DHT22;10183;47.808;9.476;2023-06-14T13:40:46;30.90;1.00
20045;DHT22;10183;47.808;9.476;2023-06-14T13:43:13;31.50;1.00
20045;DHT22;10183;47.808;9.476;2023-06-14T13:45:39;32.80;1.00
20045;DHT22;10183;47.808;9.476;2023-06-14T13:48:05;34.00;1.00
20045;DHT22;10183;47.808;9.476;2023-06-14T13:50:32;34.40;1.00
20045;DHT22;10183;47.808;9.476;2023-06-14T13:52:58;34.10;1.00
20045;DHT22;10183;47.808;9.476;2023-06-14T13:55:24;34.70;1.00
20045;DHT22;10183;47.808;9.476;2023-06-14T13:57:50;35.40;1.00
20045;DHT22;10183;47.808;9.476;2023-06-14T14:00:17;35.00;1.00
20045;DHT22;10183;47.808;9.476;2023-06-14T14:02:44;34.70;1.00
20045;DHT22;10183;47.808;9.476;2023-06-14T14:05:11;35.00;1.00
20045;DHT22;10183;47.808;9.476;2023-06-14T14:07:37;35.80;1.00
20045;DHT22;10183;47.808;9.476;2023-06-14T14:10:04;35.90;1.00
20045;DHT22;10183;47.808;9.476;2023-06-14T14:12:30;35.40;1.00
20045;DHT22;10183;47.808;9.476;2023-06-14T14:14:57;34.60;1.00
20045;DHT22;10183;47.808;9.476;2023-06-14T14:17:23;32.80;1.00
20045;DHT22;10183;47.808;9.476;2023-06-14T14:19:49;31.60;1.00
20045;DHT22;10183;47.808;9.476;2023-06-14T14:22:15;32.50;1.00
20045;DHT22;10183;47.808;9.476;2023-06-14T14:24:41;34.40;1.00
20045;DHT22;10183;47.808;9.476;2023-06-14T14:27:08;35.40;1.00
20045;DHT22;10183;47.808;9.476;2023-06-14T14:29:34;36.70;1.00
20045;DHT22;10183;47.808;9.476;2023-06-14T14:32:00;36.60;1.00
20045;DHT22;10183;47.808;9.476;2023-06-14T14:34:26;36.20;1.00
20045;DHT22;10183;47.808;9.476;2023-06-14T14:36:54;36.40;1.00
20045;DHT22;10183;47.808;9.476;2023-06-14T14:39:31;35.30;1.00
20045;DHT22;10183;47.808;9.476;2023-06-14T14:41:58;33.60;1.00
20045;DHT22;10183;47.808;9.476;2023-06-14T14:44:24;34.20;1.00
20045;DHT22;10183;47.808;9.476;2023-06-14T14:46:50;34.50;1.00
20045;DHT22;10183;47.808;9.476;2023-06-14T14:49:16;36.70;1.00
20045;DHT22;10183;47.808;9.476;2023-06-14T14:51:42;37.60;1.00
20045;DHT22;10183;47.808;9.476;2023-06-14T14:54:08;36.70;1.00
20045;DHT22;10183;47.808;9.476;2023-06-14T14:56:34;38.10;1.00
20045;DHT22;10183;47.808;9.476;2023-06-14T14:59:01;38.70;1.00
20045;DHT22;10183;47.808;9.476;2023-06-14T15:01:28;37.10;1.00
20045;DHT22;10183;47.808;9.476;2023-06-14T15:03:55;37.20;1.00
20045;DHT22;10183;47.808;9.476;2023-06-14T15:06:21;37.70;1.00
20045;DHT22;10183;47.808;9.476;2023-06-14T15:08:47;37.40;1.00
20045;DHT22;10183;47.808;9.476;2023-06-14T15:11:13;38.40;1.00
20045;DHT22;10183;47.808;9.476;2023-06-14T15:13:39;37.50;1.00
20045;DHT22;10183;47.808;9.476;2023-06-14T15:16:06;37.70;1.00
20045;DHT22;10183;47.808;9.476;2023-06-14T15:18:32;37.90;1.00
20045;DHT22;10183;47.808;9.476;2023-06-14T15:20:58;35.70;1.00
20045;DHT22;10183;47.808;9.476;2023-06-14T15:23:25;35.80;1.00
20045;DHT22;10183;47.808;9.476;2023-06-14T15:25:51;36.40;1.00
20045;DHT22;10183;47.808;9.476;2023-06-14T15:28:18;36.70;1.00
20045;DHT22;10183;47.808;9.476;2023-06-14T15:30:44;36.30;1.00
20045;DHT22;10183;47.808;9.476;2023-06-14T15:33:10;35.70;1.00
20045;DHT22;10183;47.808;9.476;2023-06-14T15:35:37;35.70;1.00
20045;DHT22;10183;47.808;9.476;2023-06-14T15:38:03;36.50;1.00
20045;DHT22;10183;47.808;9.476;2023-06-14T15:40:29;37.80;1.00
20045;DHT22;10183;47.808;9.476;2023-06-14T15:42:56;37.40;1.00
20045;DHT22;10183;47.808;9.476;2023-06-14T15:45:22;37.50;1.00
20045;DHT22;10183;47.808;9.476;2023-06-14T15:47:48;38.00;1.00
20045;DHT22;10183;47.808;9.476;2023-06-14T15:50:16;39.10;1.00